Time;durP1;ratioP1;P1;durP2;ratioP2;P2;SDS_P1;SDS_P2;PMS_P1;PMS_P2;Temp;Humidity;BMP_temperature;BMP_pressure;BME280_temperature;BME280_humidity;BME280_pressure;Samples;Min_cycle;Max_cycle;Signal;HPM_P1;HPM_P2
2022/10/24 00:02:25;;;;;;;0.40;0.40;;;15.10;92.10;;;;;;5090500;28;20084;-77
2022/10/24 00:04:51;;;;;;;0.32;0.25;;;15.10;74.00;;;;;;5107766;28;20036;-77
2022/10/24 00:07:16;;;;;;;1.25;0.65;;;15.00;91.90;;;;;;5102836;28;20443;-77
2022/10/24 00:09:42;;;;;;;0.30;0.20;;;15.10;45.40;;;;;;5086717;28;20082;-77
2022/10/24 00:12:08;;;;;;;9.07;0.85;;;15.00;65.50;;;;;;5068483;28;20090;-78
2022/10/24 00:14:35;;;;;;;1.85;1.15;;;15.00;85.50;;;;;;5087419;28;20467;-79
2022/10/24 00:17:01;;;;;;;0.10;0.10;;;14.90;96.60;;;;;;5092570;28;20114;-79
2022/10/24 00:19:26;;;;;;;0.00;0.00;;;14.90;97.80;;;;;;5106730;28;20047;-79
2022/10/24 00:21:52;;;;;;;0.00;0.00;;;15.00;99.90;;;;;;5110638;28;20039;-78
2022/10/24 00:24:18;;;;;;;1.17;0.55;;;14.70;99.90;;;;;;5092752;28;20048;-79
2022/10/24 00:26:43;;;;;;;0.17;0.17;;;14.70;99.90;;;;;;5090941;28;20054;-77
2022/10/24 00:29:10;;;;;;;4.07;1.13;;;15.00;99.90;;;;;;5109724;28;20050;-79
2022/10/24 00:31:36;;;;;;;0.55;0.43;;;14.70;99.90;;;;;;5108612;28;20044;-79
2022/10/24 00:34:03;;;;;;;0.00;0.00;;;14.60;99.90;;;;;;5107935;28;20116;-79
2022/10/24 00:36:29;;;;;;;0.10;0.10;;;14.70;99.90;;;;;;5108371;28;20488;-79
2022/10/24 00:38:54;;;;;;;0.10;0.10;;;14.70;99.90;;;;;;5108792;28;20047;-79
2022/10/24 00:41:26;;;;;;;0.00;0.00;;;14.80;99.90;;;;;;5108519;28;20047;-79
2022/10/24 00:44:12;;;;;;;1.27;1.00;;;14.80;99.90;;;;;;5107909;28;20044;-78
2022/10/24 00:46:40;;;;;;;0.00;0.00;;;14.70;99.90;;;;;;5090367;28;20050;-79
2022/10/24 00:49:13;;;;;;;0.20;0.15;;;14.70;99.90;;;;;;5108829;28;20288;-79
2022/10/24 00:51:40;;;;;;;0.60;0.25;;;14.60;99.90;;;;;;5108400;28;20494;-79
2022/10/24 00:54:09;;;;;;;0.00;0.00;;;14.50;99.90;;;;;;5109143;28;20044;-79
2022/10/24 00:56:40;;;;;;;0.17;0.17;;;14.60;99.90;;;;;;5110038;28;20047;-78
2022/10/24 00:59:09;;;;;;;0.00;0.00;;;14.60;99.90;;;;;;5108817;28;20043;-78
2022/10/24 01:01:36;;;;;;;0.75;0.75;;;14.50;99.90;;;;;;5108713;28;20040;-78
2022/10/24 01:04:02;;;;;;;0.00;0.00;;;14.60;99.90;;;;;;5108845;28;20036;-80
2022/10/24 01:06:45;;;;;;;0.05;0.03;;;14.50;99.90;;;;;;5088903;28;20417;-79
2022/10/24 01:09:29;;;;;;;0.22;0.17;;;14.50;99.90;;;;;;5091050;28;20406;-79
2022/10/24 01:12:13;;;;;;;0.32;0.28;;;14.40;99.90;;;;;;5090652;28;20596;-78
2022/10/24 01:14:45;;;;;;;0.00;0.00;;;14.50;99.90;;;;;;5108578;28;20043;-79
2022/10/24 01:17:16;;;;;;;0.38;0.20;;;14.60;99.90;;;;;;5108725;28;20567;-79
2022/10/24 01:20:12;;;;;;;0.32;0.22;;;14.70;99.90;;;;;;5108418;28;20055;-79
2022/10/24 01:23:13;;;;;;;0.88;0.15;;;14.90;99.90;;;;;;5107983;28;20098;-79
2022/10/24 01:25:56;;;;;;;0.00;0.00;;;14.90;99.90;;;;;;5106408;28;20051;-78
2022/10/24 01:28:59;;;;;;;0.10;0.10;;;15.10;99.90;;;;;;5105516;28;20048;-79
2022/10/24 01:31:34;;;;;;;1.67;0.65;;;15.10;99.90;;;;;;5104833;28;20103;-79
2022/10/24 01:34:09;;;;;;;0.00;0.00;;;15.30;92.70;;;;;;5105751;28;20122;-79
2022/10/24 01:36:42;;;;;;;0.00;0.00;;;15.30;99.90;;;;;;5105122;28;20059;-80
2022/10/24 01:39:16;;;;;;;0.00;0.00;;;15.30;88.50;;;;;;5086613;28;20091;-79
2022/10/24 01:41:43;;;;;;;0.10;0.10;;;15.30;99.90;;;;;;5085372;28;20044;-78
2022/10/24 01:44:17;;;;;;;0.08;0.00;;;15.30;99.90;;;;;;5090748;28;20039;-78
2022/10/24 01:47:02;;;;;;;0.43;0.43;;;15.50;99.90;;;;;;5105910;28;20043;-78
2022/10/24 01:49:33;;;;;;;0.05;0.05;;;15.50;99.90;;;;;;5086263;28;20055;-79
2022/10/24 01:52:03;;;;;;;0.13;0.10;;;15.50;99.70;;;;;;5067858;28;20055;-79
2022/10/24 01:54:31;;;;;;;0.30;0.30;;;15.50;99.90;;;;;;5067144;28;20127;-78
2022/10/24 01:56:57;;;;;;;3.20;0.17;;;15.60;93.20;;;;;;5084728;28;20051;-79
2022/10/24 01:59:28;;;;;;;0.00;0.00;;;15.70;50.30;;;;;;5211793;22;20094;-76
2022/10/24 02:02:35;;;;;;;0.00;0.00;;;15.60;74.50;;;;;;5075652;28;20045;-76
2022/10/24 02:05:09;;;;;;;1.00;0.82;;;15.60;77.70;;;;;;5082872;28;20040;-76
2022/10/24 02:07:36;;;;;;;0.10;0.10;;;15.60;67.80;;;;;;5084358;28;20066;-76
2022/10/24 02:10:10;;;;;;;1.75;1.27;;;15.60;83.30;;;;;;5075889;28;20141;-76
2022/10/24 02:12:41;;;;;;;2.00;1.13;;;15.60;69.10;;;;;;5085771;28;20083;-76
2022/10/24 02:15:15;;;;;;;0.03;0.03;;;15.60;61.30;;;;;;5085368;28;20028;-77
2022/10/24 02:17:40;;;;;;;0.20;0.20;;;15.50;63.00;;;;;;5080047;28;20024;-77
2022/10/24 02:20:07;;;;;;;0.82;0.63;;;15.60;76.80;;;;;;5085135;28;20044;-76
2022/10/24 02:22:48;;;;;;;0.25;0.15;;;15.50;89.20;;;;;;5086301;28;20036;-75
2022/10/24 02:25:25;;;;;;;0.30;0.25;;;15.50;59.70;;;;;;5086123;28;20041;-77
2022/10/24 02:28:14;;;;;;;0.10;0.10;;;15.60;15.40;;;;;;5086883;28;20049;-75
2022/10/24 02:30:46;;;;;;;0.28;0.28;;;15.60;22.40;;;;;;5079034;28;20045;-74
2022/10/24 02:33:12;;;;;;;0.70;0.35;;;15.60;1.00;;;;;;5083425;28;20035;-76
2022/10/24 02:35:39;;;;;;;0.08;0.03;;;15.60;1.00;;;;;;5084604;28;20087;-77
2022/10/24 02:38:17;;;;;;;0.00;0.00;;;15.60;1.00;;;;;;5089223;28;20032;-74
2022/10/24 02:40:44;;;;;;;0.10;0.10;;;15.60;1.00;;;;;;5090488;28;20596;-75
2022/10/24 02:43:12;;;;;;;0.65;0.40;;;16.10;1.00;;;;;;5089323;28;20048;-74
2022/10/24 02:45:39;;;;;;;0.10;0.10;;;15.60;1.00;;;;;;5089088;28;20079;-77
2022/10/24 02:48:09;;;;;;;0.70;0.70;;;15.50;1.00;;;;;;5089780;28;20037;-77
2022/10/24 02:50:36;;;;;;;0.00;0.00;;;15.40;1.00;;;;;;5089546;28;20079;-76
2022/10/24 02:53:03;;;;;;;0.15;0.13;;;15.50;1.00;;;;;;5088860;28;20040;-75
2022/10/24 02:55:28;;;;;;;2.90;1.58;;;15.60;1.00;;;;;;5088358;28;20059;-77
2022/10/24 02:57:54;;;;;;;1.92;0.85;;;15.60;99.90;;;;;;5088538;28;20037;-76
2022/10/24 03:00:20;;;;;;;0.00;0.00;;;15.70;99.90;;;;;;5075578;28;20053;-76
2022/10/24 03:02:45;;;;;;;0.00;0.00;;;15.70;99.90;;;;;;5069223;28;20049;-76
2022/10/24 03:05:11;;;;;;;1.45;0.75;;;15.70;99.90;;;;;;5068320;28;20045;-76
2022/10/24 03:07:37;;;;;;;0.00;0.00;;;15.70;99.90;;;;;;5067813;28;20041;-77
2022/10/24 03:10:03;;;;;;;0.08;0.08;;;16.20;99.90;;;;;;5067079;28;20132;-76
2022/10/24 03:12:28;;;;;;;0.00;0.00;;;15.70;99.90;;;;;;5068107;28;20048;-74
2022/10/24 03:14:54;;;;;;;0.10;0.10;;;15.90;99.90;;;;;;5068963;28;20041;-76
2022/10/24 03:17:20;;;;;;;0.08;0.08;;;15.90;99.90;;;;;;5068329;28;20036;-75
2022/10/24 03:19:46;;;;;;;1.60;0.30;;;15.90;99.90;;;;;;5066671;28;20068;-75
2022/10/24 03:22:11;;;;;;;3.10;0.15;;;16.10;99.90;;;;;;5068593;28;20078;-77
2022/10/24 03:24:37;;;;;;;0.20;0.20;;;16.00;99.90;;;;;;5068828;28;20396;-76
2022/10/24 03:27:03;;;;;;;1.20;0.85;;;15.80;99.90;;;;;;5068565;28;20072;-76
2022/10/24 03:29:28;;;;;;;1.20;0.47;;;16.00;99.90;;;;;;5067638;28;20067;-75
2022/10/24 03:31:54;;;;;;;0.47;0.47;;;16.00;48.50;;;;;;5066640;28;20045;-76
2022/10/24 03:34:20;;;;;;;0.22;0.22;;;16.10;49.40;;;;;;5068375;28;20045;-75
2022/10/24 03:36:45;;;;;;;0.30;0.30;;;15.90;99.90;;;;;;5067713;28;20041;-76
2022/10/24 03:39:11;;;;;;;1.15;0.70;;;15.80;99.90;;;;;;5068065;28;20040;-75
2022/10/24 03:41:37;;;;;;;1.17;0.20;;;15.80;99.90;;;;;;5068610;28;20064;-74
2022/10/24 03:44:02;;;;;;;2.92;1.77;;;15.70;99.90;;;;;;5068664;28;20048;-75
2022/10/24 03:46:28;;;;;;;0.55;0.28;;;15.70;99.90;;;;;;5066466;28;20033;-75
2022/10/24 03:48:53;;;;;;;1.08;0.93;;;15.60;99.90;;;;;;5067504;28;20037;-76
2022/10/24 03:51:19;;;;;;;0.10;0.10;;;15.80;99.90;;;;;;5069029;28;20032;-77
2022/10/24 03:53:45;;;;;;;1.45;1.10;;;15.70;99.90;;;;;;5068533;28;20045;-76
2022/10/24 03:56:10;;;;;;;0.00;0.00;;;15.70;93.30;;;;;;5067585;28;20037;-75
2022/10/24 03:58:36;;;;;;;0.05;0.05;;;15.70;85.80;;;;;;5066267;28;20131;-76
2022/10/24 04:01:02;;;;;;;0.60;0.47;;;15.80;32.20;;;;;;5067274;28;20097;-75
2022/10/24 04:03:27;;;;;;;3.10;1.35;;;15.80;3.30;;;;;;5067224;28;20088;-77
2022/10/24 04:05:53;;;;;;;0.10;0.10;;;15.70;8.20;;;;;;5066404;28;20068;-77
2022/10/24 04:08:19;;;;;;;0.32;0.25;;;15.70;67.20;;;;;;5066958;28;20036;-76
2022/10/24 04:10:45;;;;;;;0.93;0.30;;;15.60;12.10;;;;;;5066741;28;20036;-75
2022/10/24 04:13:11;;;;;;;0.10;0.10;;;15.70;1.00;;;;;;5068340;28;20061;-76
2022/10/24 04:15:37;;;;;;;0.28;0.20;;;15.30;97.10;;;;;;5065265;28;20032;-75
2022/10/24 04:18:03;;;;;;;0.10;0.10;;;15.20;99.90;;;;;;5065641;28;20037;-76
2022/10/24 04:20:28;;;;;;;0.30;0.28;;;15.30;91.90;;;;;;5067190;28;20037;-76
2022/10/24 04:22:55;;;;;;;2.40;0.75;;;15.10;99.90;;;;;;5066595;28;20032;-75
2022/10/24 04:25:21;;;;;;;0.05;0.05;;;15.10;99.90;;;;;;5066804;28;20060;-76
2022/10/24 04:27:46;;;;;;;0.13;0.13;;;14.90;99.90;;;;;;5065923;28;20075;-76
2022/10/24 04:30:13;;;;;;;0.40;0.40;;;14.90;99.90;;;;;;5066290;28;20037;-74
2022/10/24 04:32:39;;;;;;;0.30;0.30;;;14.80;99.90;;;;;;5066584;28;20527;-76
2022/10/24 04:35:05;;;;;;;0.20;0.20;;;14.70;99.90;;;;;;5068199;28;20049;-77
2022/10/24 04:37:31;;;;;;;0.65;0.63;;;14.60;99.90;;;;;;5066333;28;20089;-76
2022/10/24 04:39:57;;;;;;;0.05;0.00;;;14.70;99.90;;;;;;5066088;28;20033;-75
2022/10/24 04:42:24;;;;;;;0.40;0.20;;;14.60;99.90;;;;;;5067731;28;20354;-76
2022/10/24 04:44:49;;;;;;;0.20;0.20;;;14.50;99.90;;;;;;5065380;28;20071;-76
2022/10/24 04:47:16;;;;;;;7.43;2.03;;;14.40;99.90;;;;;;5066198;28;20029;-75
2022/10/24 04:49:41;;;;;;;1.67;0.80;;;14.30;1.00;;;;;;5064481;28;20045;-76
2022/10/24 04:52:07;;;;;;;0.00;0.00;;;14.30;1.00;;;;;;5064291;28;20021;-76
2022/10/24 04:54:32;;;;;;;0.30;0.25;;;14.20;1.00;;;;;;5064798;28;20333;-75
2022/10/24 04:56:58;;;;;;;0.55;0.45;;;14.20;1.00;;;;;;5065399;28;20113;-75
2022/10/24 04:59:24;;;;;;;0.65;0.40;;;14.10;1.00;;;;;;5063689;28;20057;-75
2022/10/24 05:01:50;;;;;;;3.20;1.33;;;14.10;1.00;;;;;;5064342;28;20029;-76
2022/10/24 05:04:15;;;;;;;0.40;0.30;;;14.20;1.00;;;;;;5045578;28;20034;-75
2022/10/24 05:06:41;;;;;;;1.55;1.00;;;14.20;1.00;;;;;;5057296;28;20056;-77
2022/10/24 05:09:06;;;;;;;0.73;0.50;;;14.20;1.00;;;;;;5065022;28;20037;-76
2022/10/24 05:11:32;;;;;;;2.22;0.38;;;14.10;1.00;;;;;;5065550;28;20121;-75
2022/10/24 05:13:58;;;;;;;1.20;1.00;;;14.10;1.00;;;;;;5064062;28;20041;-75
2022/10/24 05:16:24;;;;;;;0.45;0.45;;;14.20;99.90;;;;;;5064333;28;20037;-76
2022/10/24 05:18:49;;;;;;;1.08;0.85;;;14.40;99.90;;;;;;5065207;28;20041;-77
2022/10/24 05:21:15;;;;;;;0.00;0.00;;;14.20;99.90;;;;;;5065793;28;20045;-76
2022/10/24 05:23:41;;;;;;;0.65;0.52;;;14.20;99.90;;;;;;5064838;28;20037;-75
2022/10/24 05:26:07;;;;;;;1.55;1.08;;;14.20;99.90;;;;;;5064171;28;20096;-77
2022/10/24 05:28:32;;;;;;;0.00;0.00;;;14.20;99.90;;;;;;5065155;28;20052;-75
2022/10/24 05:30:58;;;;;;;0.20;0.20;;;14.20;99.90;;;;;;5063822;28;20049;-76
2022/10/24 05:33:24;;;;;;;0.00;0.00;;;14.20;99.90;;;;;;5064042;28;20055;-75
2022/10/24 05:35:50;;;;;;;0.15;0.15;;;14.50;99.90;;;;;;5063813;28;20045;-76
2022/10/24 05:38:16;;;;;;;1.50;0.47;;;14.30;99.90;;;;;;5065420;28;20033;-76
2022/10/24 05:40:41;;;;;;;5.55;1.25;;;14.20;99.90;;;;;;5063108;28;20064;-76
2022/10/24 05:43:07;;;;;;;0.00;0.00;;;14.40;99.90;;;;;;5065522;28;20045;-75
2022/10/24 05:45:33;;;;;;;1.48;0.90;;;14.30;99.90;;;;;;5065196;28;20369;-75
2022/10/24 05:48:02;;;;;;;1.08;0.85;;;14.30;99.90;;;;;;5064104;28;20036;-76
2022/10/24 05:50:28;;;;;;;1.65;0.88;;;14.20;99.90;;;;;;5063766;28;20049;-76
2022/10/24 05:52:54;;;;;;;0.00;0.00;;;14.20;99.90;;;;;;5064488;28;20066;-74
2022/10/24 05:55:20;;;;;;;0.05;0.05;;;14.20;99.90;;;;;;5064074;28;20049;-75
2022/10/24 05:57:45;;;;;;;0.00;0.00;;;14.30;99.90;;;;;;5064797;28;20537;-76
2022/10/24 06:00:13;;;;;;;0.30;0.10;;;14.20;99.90;;;;;;5063311;28;20140;-75
2022/10/24 06:02:39;;;;;;;9.45;0.32;;;14.30;99.90;;;;;;5046523;28;20056;-73
2022/10/24 06:05:06;;;;;;;0.00;0.00;;;14.40;83.40;;;;;;5064312;28;20052;-76
2022/10/24 06:07:31;;;;;;;0.22;0.20;;;14.60;1.00;;;;;;5063640;28;20427;-77
2022/10/24 06:09:57;;;;;;;0.20;0.20;;;14.70;1.00;;;;;;5064944;28;20530;-76
2022/10/24 06:12:23;;;;;;;0.08;0.00;;;14.70;1.00;;;;;;5064599;28;20037;-76
2022/10/24 06:14:49;;;;;;;0.32;0.32;;;14.70;1.00;;;;;;5063406;28;20036;-75
2022/10/24 06:17:14;;;;;;;0.10;0.10;;;15.10;99.90;;;;;;5064702;28;20048;-77
2022/10/24 06:19:40;;;;;;;0.10;0.10;;;15.00;99.90;;;;;;5065817;28;20055;-74
2022/10/24 06:22:07;;;;;;;0.08;0.08;;;14.90;99.90;;;;;;5065799;28;20025;-76
2022/10/24 06:24:37;;;;;;;0.00;0.00;;;15.00;99.90;;;;;;5065304;28;20037;-77
2022/10/24 06:27:03;;;;;;;0.13;0.10;;;15.10;99.90;;;;;;5064362;28;20081;-77
2022/10/24 06:29:29;;;;;;;0.68;0.47;;;15.00;99.90;;;;;;5063426;28;20098;-74
2022/10/24 06:31:55;;;;;;;0.00;0.00;;;15.20;99.90;;;;;;5064719;28;20025;-77
2022/10/24 06:34:21;;;;;;;0.00;0.00;;;15.10;99.90;;;;;;5063536;28;20100;-75
2022/10/24 06:36:46;;;;;;;0.00;0.00;;;15.10;99.60;;;;;;5062790;28;20045;-76
2022/10/24 06:39:12;;;;;;;0.30;0.20;;;15.30;1.00;;;;;;5064190;28;20069;-74
2022/10/24 06:41:37;;;;;;;0.60;0.52;;;15.30;1.00;;;;;;5065263;28;20017;-75
2022/10/24 06:44:03;;;;;;;0.40;0.25;;;15.10;14.50;;;;;;5063511;28;20052;-75
2022/10/24 06:46:29;;;;;;;0.00;0.00;;;15.00;77.90;;;;;;5063785;28;20095;-76
2022/10/24 06:48:55;;;;;;;0.17;0.10;;;14.90;99.90;;;;;;5062767;28;20048;-74
2022/10/24 06:51:21;;;;;;;0.15;0.15;;;14.70;99.90;;;;;;5062437;28;20040;-76
2022/10/24 06:53:47;;;;;;;0.05;0.03;;;14.70;99.90;;;;;;5064345;28;20037;-75
2022/10/24 06:56:13;;;;;;;0.52;0.28;;;14.70;99.90;;;;;;5063768;28;20025;-75
2022/10/24 06:58:39;;;;;;;0.17;0.10;;;15.20;99.90;;;;;;5063534;28;20045;-76
2022/10/24 07:01:09;;;;;;;0.00;0.00;;;14.90;99.90;;;;;;5062053;28;20049;-75
2022/10/24 07:03:35;;;;;;;0.10;0.10;;;14.90;99.90;;;;;;5063352;28;20045;-75
2022/10/24 07:06:19;;;;;;;0.08;0.08;;;14.80;99.90;;;;;;5063612;28;20041;-77
2022/10/24 07:08:46;;;;;;;0.00;0.00;;;14.80;99.90;;;;;;5058150;28;20055;-74
2022/10/24 07:11:11;;;;;;;10.50;0.17;;;14.90;99.90;;;;;;5062206;28;20039;-77
2022/10/24 07:13:37;;;;;;;0.00;0.00;;;15.00;99.90;;;;;;5059418;28;20112;-75
2022/10/24 07:16:03;;;;;;;0.03;0.03;;;15.20;99.90;;;;;;5063221;28;20029;-77
2022/10/24 07:18:29;;;;;;;0.00;0.00;;;15.40;99.90;;;;;;5060242;28;20048;-77
2022/10/24 07:21:03;;;;;;;0.00;0.00;;;15.50;24.50;;;;;;5064432;28;20037;-77
2022/10/24 07:23:29;;;;;;;0.10;0.10;;;15.50;55.90;;;;;;5066153;28;20035;-75
2022/10/24 07:26:01;;;;;;;0.25;0.25;;;15.60;1.00;;;;;;5066219;28;20037;-75
2022/10/24 07:28:26;;;;;;;0.00;0.00;;;15.70;1.00;;;;;;5067788;28;20045;-75
2022/10/24 07:30:52;;;;;;;0.00;0.00;;;15.70;1.00;;;;;;5067106;28;20052;-76
2022/10/24 07:33:17;;;;;;;0.08;0.08;;;15.60;1.00;;;;;;5066711;28;20045;-76
2022/10/24 07:35:43;;;;;;;1.65;0.70;;;15.60;1.00;;;;;;5066740;28;20025;-74
2022/10/24 07:38:09;;;;;;;4.15;1.98;;;15.70;63.20;;;;;;5065570;28;20025;-76
2022/10/24 07:40:34;;;;;;;0.20;0.20;;;15.30;99.90;;;;;;5065648;28;20033;-74
2022/10/24 07:43:00;;;;;;;0.00;0.00;;;15.30;99.90;;;;;;5064455;28;20044;-76
2022/10/24 07:45:27;;;;;;;0.08;0.03;;;15.60;35.80;;;;;;5062946;28;20049;-75
2022/10/24 07:47:52;;;;;;;1.10;0.40;;;15.70;1.00;;;;;;5062962;28;20053;-76
2022/10/24 07:50:18;;;;;;;0.00;0.00;;;15.90;1.00;;;;;;5064857;28;20041;-75
2022/10/24 07:52:44;;;;;;;0.00;0.00;;;16.20;99.90;;;;;;5064574;28;20037;-76
2022/10/24 07:55:09;;;;;;;0.00;0.00;;;16.30;99.90;;;;;;5063064;28;20017;-74
2022/10/24 07:57:35;;;;;;;2.25;0.55;;;16.30;99.90;;;;;;5065675;28;20636;-75
2022/10/24 08:00:01;;;;;;;0.00;0.00;;;16.30;99.90;;;;;;5063991;28;20053;-76
2022/10/24 08:02:26;;;;;;;0.00;0.00;;;16.30;99.90;;;;;;5065280;28;20128;-77
2022/10/24 08:04:52;;;;;;;0.00;0.00;;;16.40;99.90;;;;;;5060753;28;20055;-75
2022/10/24 08:07:18;;;;;;;0.10;0.10;;;16.60;99.90;;;;;;5060700;28;20049;-75
2022/10/24 08:09:45;;;;;;;0.85;0.45;;;17.10;86.40;;;;;;5061905;28;20572;-77
2022/10/24 08:12:11;;;;;;;0.00;0.00;;;16.70;1.00;;;;;;5060354;28;20056;-73
2022/10/24 08:14:38;;;;;;;0.15;0.15;;;16.70;1.00;;;;;;5060171;28;20610;-74
2022/10/24 08:17:04;;;;;;;0.00;0.00;;;16.70;99.90;;;;;;5059087;28;20037;-76
2022/10/24 08:19:30;;;;;;;0.22;0.22;;;16.70;99.90;;;;;;5062299;28;20071;-76
2022/10/24 08:21:56;;;;;;;0.13;0.10;;;16.60;99.90;;;;;;5061759;28;20040;-75
2022/10/24 08:24:22;;;;;;;0.00;0.00;;;16.50;1.00;;;;;;5062843;28;20083;-78
2022/10/24 08:26:48;;;;;;;0.00;0.00;;;16.60;1.00;;;;;;5059876;28;20036;-77
2022/10/24 08:29:20;;;;;;;0.00;0.00;;;16.80;99.90;;;;;;5056703;28;20116;-77
2022/10/24 08:31:49;;;;;;;0.28;0.25;;;16.90;99.90;;;;;;5057249;28;20144;-76
2022/10/24 08:34:15;;;;;;;0.15;0.15;;;16.90;99.90;;;;;;5057026;28;20323;-76
2022/10/24 08:36:41;;;;;;;0.00;0.00;;;16.80;99.90;;;;;;5059081;28;20037;-76
2022/10/24 08:39:07;;;;;;;0.15;0.15;;;16.90;99.90;;;;;;5059772;28;20120;-76
2022/10/24 08:42:04;;;;;;;0.00;0.00;;;16.90;99.90;;;;;;5057816;28;20079;-77
2022/10/24 08:44:33;;;;;;;0.13;0.13;;;17.00;99.90;;;;;;5056910;28;20064;-77
2022/10/24 08:47:20;;;;;;;0.77;0.35;;;17.00;99.90;;;;;;5060294;28;20053;-76
2022/10/24 08:50:04;;;;;;;0.50;0.27;;;17.30;99.90;;;;;;5041712;28;20053;-74
2022/10/24 08:52:43;;;;;;;0.00;0.00;;;17.10;99.90;;;;;;5040137;28;20049;-77
2022/10/24 08:55:24;;;;;;;0.00;0.00;;;16.90;99.90;;;;;;5041946;28;20045;-76
2022/10/24 08:57:54;;;;;;;0.00;0.00;;;16.90;99.90;;;;;;5043036;28;20050;-76
2022/10/24 09:00:27;;;;;;;8.38;2.10;;;17.00;99.90;;;;;;5042367;28;20054;-76
2022/10/24 09:03:03;;;;;;;0.35;0.35;;;17.10;99.90;;;;;;5041739;28;20092;-76
2022/10/24 09:05:36;;;;;;;1.08;0.63;;;17.30;99.90;;;;;;5042959;28;20037;-77
2022/10/24 09:08:18;;;;;;;1.48;0.80;;;17.40;99.90;;;;;;5041885;28;20041;-74
2022/10/24 09:10:57;;;;;;;0.00;0.00;;;17.40;94.40;;;;;;5037091;28;20059;-75
2022/10/24 09:13:26;;;;;;;0.13;0.13;;;17.40;73.70;;;;;;5037117;28;20131;-75
2022/10/24 09:15:52;;;;;;;0.35;0.20;;;18.50;92.00;;;;;;5039617;28;20057;-77
2022/10/24 09:18:37;;;;;;;0.65;0.47;;;17.40;99.90;;;;;;5037750;28;20952;-77
2022/10/24 09:21:07;;;;;;;0.00;0.00;;;17.60;30.50;;;;;;5036577;28;20049;-76
2022/10/24 09:23:35;;;;;;;0.00;0.00;;;17.60;1.00;;;;;;5036838;28;20045;-75
2022/10/24 09:26:04;;;;;;;0.13;0.10;;;17.70;1.00;;;;;;5050900;28;20308;-76
2022/10/24 09:28:36;;;;;;;2.08;0.88;;;17.80;1.00;;;;;;5034094;28;20068;-74
2022/10/24 09:31:05;;;;;;;0.00;0.00;;;17.90;1.00;;;;;;5035094;28;20053;-77
2022/10/24 09:33:34;;;;;;;0.65;0.47;;;17.90;99.90;;;;;;5038291;28;20853;-75
2022/10/24 09:36:04;;;;;;;0.00;0.00;;;17.80;99.90;;;;;;5038863;28;20042;-75
2022/10/24 09:38:36;;;;;;;0.00;0.00;;;17.70;99.90;;;;;;5040508;28;20102;-76
2022/10/24 09:41:14;;;;;;;0.00;0.00;;;17.60;99.90;;;;;;5040125;28;20267;-75
2022/10/24 09:43:42;;;;;;;4.30;1.17;;;17.60;99.90;;;;;;5039147;28;20118;-76
2022/10/24 09:46:30;;;;;;;0.20;0.20;;;17.60;99.90;;;;;;5041920;28;20045;-77
2022/10/24 09:49:21;;;;;;;0.10;0.10;;;17.40;1.00;;;;;;5033919;28;20080;-77
2022/10/24 09:52:05;;;;;;;0.43;0.28;;;17.50;1.00;;;;;;5040038;28;20076;-76
2022/10/24 09:54:33;;;;;;;0.52;0.30;;;17.80;99.90;;;;;;5039034;28;20080;-77
2022/10/24 09:57:11;;;;;;;0.10;0.10;;;17.90;99.90;;;;;;5037919;28;20045;-75
2022/10/24 10:00:03;;;;;;;0.00;0.00;;;17.90;99.90;;;;;;5037599;28;20511;-75
2022/10/24 10:02:33;;;;;;;0.00;0.00;;;17.90;99.90;;;;;;5038184;28;20053;-75
2022/10/24 10:05:01;;;;;;;0.05;0.05;;;18.00;99.90;;;;;;5039709;28;20056;-76
2022/10/24 10:07:30;;;;;;;0.40;0.40;;;17.90;99.90;;;;;;5039659;28;20045;-76
2022/10/24 10:10:02;;;;;;;0.00;0.00;;;17.90;99.90;;;;;;5038278;28;20041;-75
2022/10/24 10:12:28;;;;;;;0.28;0.20;;;18.00;99.90;;;;;;5039081;28;20048;-74
2022/10/24 10:14:54;;;;;;;0.47;0.47;;;18.10;99.90;;;;;;5036411;28;20105;-75
2022/10/24 10:17:26;;;;;;;4.75;1.02;;;18.20;99.90;;;;;;5039390;28;20045;-77
2022/10/24 10:19:53;;;;;;;0.00;0.00;;;18.20;99.90;;;;;;5036808;28;20042;-75
2022/10/24 10:22:28;;;;;;;0.00;0.00;;;18.00;97.80;;;;;;5038597;28;20050;-76
2022/10/24 10:24:55;;;;;;;0.00;0.00;;;18.00;99.90;;;;;;5038158;28;20049;-75
2022/10/24 10:27:33;;;;;;;0.65;0.35;;;17.90;99.90;;;;;;5039150;28;20049;-76
2022/10/24 10:30:08;;;;;;;0.00;0.00;;;17.70;99.90;;;;;;5056580;28;20600;-77
2022/10/24 10:32:55;;;;;;;0.10;0.10;;;17.50;99.90;;;;;;5039094;28;20069;-76
2022/10/24 10:35:36;;;;;;;0.20;0.10;;;17.40;1.00;;;;;;5040059;28;20075;-76
2022/10/24 10:38:16;;;;;;;0.00;0.00;;;17.60;99.90;;;;;;5038427;28;20063;-76
2022/10/24 10:41:06;;;;;;;0.90;0.40;;;17.60;99.90;;;;;;5038581;28;20256;-75
2022/10/24 10:43:58;;;;;;;0.00;0.00;;;17.70;99.90;;;;;;5018018;28;20050;-76
2022/10/24 10:46:32;;;;;;;0.00;0.00;;;17.80;99.90;;;;;;5036228;28;20056;-77
2022/10/24 10:49:05;;;;;;;0.50;0.47;;;17.90;93.20;;;;;;5037857;28;20494;-76
2022/10/24 10:52:00;;;;;;;0.00;0.00;;;17.90;99.90;;;;;;5036375;28;20037;-76
2022/10/24 10:55:00;;;;;;;0.00;0.00;;;18.00;99.90;;;;;;5027422;28;20076;-76
2022/10/24 10:57:34;;;;;;;0.10;0.10;;;18.30;90.80;;;;;;5040794;28;20076;-76
2022/10/24 11:00:06;;;;;;;0.00;0.00;;;18.40;71.80;;;;;;5036378;28;20133;-74
2022/10/24 11:02:59;;;;;;;0.22;0.17;;;18.30;78.20;;;;;;5035288;28;20073;-76
2022/10/24 11:05:50;;;;;;;0.00;0.00;;;18.60;2.40;;;;;;5039790;28;20060;-76
2022/10/24 11:08:26;;;;;;;0.20;0.20;;;18.90;1.00;;;;;;5041345;28;20045;-77
2022/10/24 11:10:53;;;;;;;0.47;0.38;;;19.30;1.00;;;;;;5041233;28;20450;-77
2022/10/24 11:13:25;;;;;;;14.55;1.48;;;19.50;99.90;;;;;;5040976;28;20037;-77
2022/10/24 11:15:55;;;;;;;2.03;1.35;;;19.50;99.90;;;;;;5040219;28;20042;-77
2022/10/24 11:18:29;;;;;;;0.35;0.30;;;19.50;99.90;;;;;;5039599;28;20101;-76
2022/10/24 11:21:04;;;;;;;1.13;0.57;;;19.50;99.90;;;;;;5039400;28;20053;-75
2022/10/24 11:23:52;;;;;;;0.10;0.10;;;19.70;99.90;;;;;;5041896;28;20072;-77
2022/10/24 11:26:27;;;;;;;0.25;0.10;;;19.60;99.90;;;;;;5041118;28;20049;-75
2022/10/24 11:29:23;;;;;;;0.17;0.17;;;19.60;99.90;;;;;;5039778;28;20057;-77
2022/10/24 11:32:02;;;;;;;0.70;0.50;;;19.50;99.90;;;;;;5039707;28;20053;-76
2022/10/24 11:34:41;;;;;;;0.00;0.00;;;19.20;99.90;;;;;;5042297;28;20103;-76
2022/10/24 11:37:16;;;;;;;0.00;0.00;;;19.10;95.40;;;;;;5043600;28;20021;-77
2022/10/24 11:39:50;;;;;;;0.03;0.03;;;18.70;99.90;;;;;;5043446;28;20098;-76
2022/10/24 11:42:30;;;;;;;0.70;0.70;;;18.60;99.90;;;;;;5042081;28;20052;-75
2022/10/24 11:45:09;;;;;;;0.00;0.00;;;18.60;99.90;;;;;;5042295;28;20737;-76
2022/10/24 11:47:53;;;;;;;0.00;0.00;;;18.50;99.90;;;;;;5042977;28;20068;-76
2022/10/24 11:50:27;;;;;;;0.00;0.00;;;18.60;99.90;;;;;;5042860;28;20073;-75
2022/10/24 11:53:18;;;;;;;0.10;0.10;;;18.50;99.90;;;;;;5043320;28;20053;-76
2022/10/24 11:55:52;;;;;;;1.20;1.10;;;18.40;99.90;;;;;;5041465;28;20053;-77
2022/10/24 11:58:21;;;;;;;0.00;0.00;;;18.30;99.90;;;;;;5041873;28;20076;-78
2022/10/24 12:00:58;;;;;;;2.72;0.45;;;18.20;99.90;;;;;;5041957;28;20109;-76
2022/10/24 12:03:53;;;;;;;0.20;0.20;;;18.10;99.90;;;;;;5041281;28;20072;-76
2022/10/24 12:06:44;;;;;;;1.60;0.63;;;18.00;99.90;;;;;;5038461;28;20045;-76
2022/10/24 12:09:36;;;;;;;0.90;0.50;;;17.90;99.90;;;;;;5039734;28;20053;-74
2022/10/24 12:12:39;;;;;;;0.43;0.43;;;17.80;99.90;;;;;;5038848;28;20050;-76
2022/10/24 12:15:37;;;;;;;5.07;2.08;;;17.80;99.90;;;;;;5040241;28;20144;-74
2022/10/24 12:18:24;;;;;;;0.80;0.45;;;17.80;99.90;;;;;;5041653;28;20410;-75
2022/10/24 12:20:52;;;;;;;0.00;0.00;;;18.00;99.90;;;;;;5042119;28;20544;-75
2022/10/24 12:23:26;;;;;;;0.00;0.00;;;18.30;99.90;;;;;;5037550;28;20622;-76
2022/10/24 12:26:31;;;;;;;0.00;0.00;;;18.30;99.90;;;;;;5036633;28;20105;-74
2022/10/24 12:28:59;;;;;;;0.90;0.55;;;18.30;99.90;;;;;;5017032;28;20088;-75
2022/10/24 12:31:36;;;;;;;2.25;0.47;;;18.30;99.90;;;;;;5037890;28;20542;-75
2022/10/24 12:34:21;;;;;;;0.28;0.22;;;18.20;99.90;;;;;;5039365;28;20041;-76
2022/10/24 12:37:11;;;;;;;0.00;0.00;;;18.30;99.90;;;;;;5040326;28;20068;-74
2022/10/24 12:39:42;;;;;;;0.85;0.60;;;18.40;99.90;;;;;;5039901;28;20053;-75
2022/10/24 12:42:35;;;;;;;2.40;0.95;;;18.40;99.90;;;;;;5039116;28;20045;-74
2022/10/24 12:45:04;;;;;;;0.10;0.10;;;18.30;99.90;;;;;;5038663;28;20579;-77
2022/10/24 12:47:31;;;;;;;0.00;0.00;;;18.20;99.90;;;;;;5044420;28;20076;-73
2022/10/24 12:50:19;;;;;;;0.35;0.30;;;18.10;99.90;;;;;;5044202;28;20053;-75
2022/10/24 12:52:44;;;;;;;0.00;0.00;;;17.90;99.90;;;;;;5036980;28;20049;-76
2022/10/24 12:55:34;;;;;;;0.00;0.00;;;18.10;99.90;;;;;;5042782;28;20073;-75
2022/10/24 12:58:01;;;;;;;0.00;0.00;;;17.50;1.00;;;;;;5039888;28;20057;-74
2022/10/24 13:00:29;;;;;;;0.00;0.00;;;17.20;1.00;;;;;;5039451;28;20053;-76
2022/10/24 13:03:21;;;;;;;0.00;0.00;;;17.20;32.80;;;;;;5039323;28;20155;-74
2022/10/24 13:06:13;;;;;;;0.00;0.00;;;16.90;99.90;;;;;;5038646;28;20506;-73
2022/10/24 13:09:05;;;;;;;0.00;0.00;;;16.80;99.90;;;;;;5041091;28;20065;-76
2022/10/24 13:11:46;;;;;;;0.10;0.10;;;16.80;99.90;;;;;;5037122;28;20096;-73